createdAt,value
2022-10-02T00:01:21.872Z,1.00
2022-10-02T00:03:51.039Z,1.60
2022-10-02T00:06:24.810Z,1.27
2022-10-02T00:08:59.308Z,2.00
2022-10-02T00:11:36.745Z,0.90
2022-10-02T00:14:06.779Z,1.60
2022-10-02T00:16:39.851Z,1.10
2022-10-02T00:19:11.061Z,1.50
2022-10-02T00:22:09.840Z,1.30
2022-10-02T00:24:44.874Z,1.10
2022-10-02T00:27:39.751Z,2.10
2022-10-02T00:30:12.951Z,0.70
2022-10-02T00:33:00.743Z,1.00
2022-10-02T00:36:00.639Z,1.07
2022-10-02T00:38:47.309Z,1.67
2022-10-02T00:41:55.544Z,1.43
2022-10-02T00:44:52.677Z,1.50
2022-10-02T00:47:32.341Z,1.03
2022-10-02T00:50:18.092Z,1.70
2022-10-02T00:53:01.981Z,1.60
2022-10-02T00:55:57.450Z,1.70
2022-10-02T00:58:46.684Z,3.80
2022-10-02T01:01:19.915Z,3.20
2022-10-02T01:03:53.218Z,2.50
2022-10-02T01:06:24.450Z,2.97
2022-10-02T01:08:52.997Z,4.23
2022-10-02T01:11:24.199Z,1.40
2022-10-02T01:13:52.698Z,1.40
2022-10-02T01:16:20.988Z,1.20
2022-10-02T01:18:49.092Z,1.43
2022-10-02T01:21:24.829Z,2.53
2022-10-02T01:24:03.234Z,1.40
2022-10-02T01:26:33.060Z,3.40
2022-10-02T01:29:01.336Z,1.67
2022-10-02T01:31:29.526Z,1.40
2022-10-02T01:33:57.746Z,2.20
2022-10-02T01:36:26.752Z,1.60
2022-10-02T01:38:55.391Z,1.60
2022-10-02T01:41:23.569Z,1.50
2022-10-02T01:43:56.345Z,2.00
2022-10-02T01:46:34.042Z,1.50
2022-10-02T01:49:15.928Z,1.30
2022-10-02T01:52:21.175Z,2.20
2022-10-02T01:55:29.312Z,1.43
2022-10-02T01:58:14.183Z,1.70
2022-10-02T02:00:56.888Z,1.97
2022-10-02T02:03:38.319Z,1.57
2022-10-02T02:06:10.786Z,1.67
2022-10-02T02:08:46.488Z,2.20
2022-10-02T02:11:17.591Z,1.30
2022-10-02T02:13:49.191Z,2.50
2022-10-02T02:16:27.117Z,1.83
2022-10-02T02:19:01.437Z,1.50
2022-10-02T02:21:34.041Z,1.60
2022-10-02T02:24:08.751Z,1.20
2022-10-02T02:26:39.109Z,1.93
2022-10-02T02:29:09.711Z,1.90
2022-10-02T02:31:45.053Z,1.50
2022-10-02T02:34:18.503Z,2.00
2022-10-02T02:36:51.796Z,1.70
2022-10-02T02:39:27.458Z,1.60
2022-10-02T02:42:01.037Z,2.57
2022-10-02T02:44:33.917Z,1.93
2022-10-02T02:47:11.204Z,1.93
2022-10-02T02:49:49.760Z,1.70
2022-10-02T02:52:23.196Z,1.70
2022-10-02T02:54:55.926Z,2.07
2022-10-02T02:57:31.107Z,1.40
2022-10-02T03:00:02.141Z,1.40
2022-10-02T03:02:31.534Z,1.63
2022-10-02T03:04:59.710Z,1.43
2022-10-02T03:07:27.922Z,1.20
2022-10-02T03:10:08.701Z,1.90
2022-10-02T03:12:51.994Z,1.23
2022-10-02T03:15:30.055Z,1.20
2022-10-02T03:18:40.395Z,1.27
2022-10-02T03:21:15.047Z,1.60
2022-10-02T03:23:57.632Z,1.40
2022-10-02T03:26:36.506Z,1.63
2022-10-02T03:29:12.142Z,1.10
2022-10-02T03:31:41.552Z,1.20
2022-10-02T03:34:11.129Z,1.00
2022-10-02T03:36:39.488Z,1.67
2022-10-02T03:39:25.979Z,1.37
2022-10-02T03:41:54.777Z,1.60
2022-10-02T03:44:22.827Z,1.50
2022-10-02T03:46:50.864Z,2.40
2022-10-02T03:49:20.250Z,1.27
2022-10-02T03:51:48.231Z,1.77
2022-10-02T03:54:20.862Z,1.43
2022-10-02T03:56:56.996Z,1.20
2022-10-02T03:59:38.131Z,2.27
2022-10-02T04:02:25.036Z,1.50
2022-10-02T04:05:02.590Z,1.70
2022-10-02T04:07:37.187Z,1.77
2022-10-02T04:10:26.867Z,1.40
2022-10-02T04:13:03.848Z,1.23
2022-10-02T04:15:42.752Z,1.53
2022-10-02T04:18:19.749Z,2.30
2022-10-02T04:20:53.994Z,1.17
2022-10-02T04:23:28.422Z,1.70
2022-10-02T04:26:02.666Z,2.17
2022-10-02T04:28:38.903Z,2.27
2022-10-02T04:31:13.042Z,2.10
2022-10-02T04:33:41.816Z,1.67
2022-10-02T04:36:28.114Z,1.20
2022-10-02T04:39:34.687Z,2.20
2022-10-02T04:42:20.780Z,1.40
2022-10-02T04:45:13.168Z,1.33
2022-10-02T04:48:39.187Z,1.17
2022-10-02T04:51:24.771Z,1.30
2022-10-02T04:54:36.930Z,1.43
2022-10-02T04:57:23.105Z,2.07
2022-10-02T05:00:07.002Z,1.70
2022-10-02T05:03:00.715Z,2.07
2022-10-02T05:05:56.878Z,1.50
2022-10-02T05:08:58.294Z,1.80
2022-10-02T05:11:52.558Z,2.10
2022-10-02T05:15:03.642Z,1.30
2022-10-02T05:17:51.242Z,1.30
2022-10-02T05:20:50.121Z,1.90
2022-10-02T05:23:51.049Z,2.07
2022-10-02T05:26:47.220Z,1.80
2022-10-02T05:29:41.565Z,1.93
2022-10-02T05:32:47.937Z,1.60
2022-10-02T05:35:32.079Z,2.00
2022-10-02T05:38:11.155Z,2.80
2022-10-02T05:40:49.313Z,3.07
2022-10-02T05:43:25.450Z,1.90
2022-10-02T05:45:56.953Z,2.03
2022-10-02T05:48:28.966Z,2.40
2022-10-02T05:51:07.991Z,1.80
2022-10-02T05:53:41.665Z,3.13
2022-10-02T05:56:17.653Z,4.53
2022-10-02T05:58:52.783Z,1.40
2022-10-02T06:01:27.478Z,2.07
2022-10-02T06:04:03.490Z,3.10
2022-10-02T06:06:39.605Z,2.63
2022-10-02T06:09:19.773Z,3.50
2022-10-02T06:11:54.684Z,2.50
2022-10-02T06:14:29.843Z,2.80
2022-10-02T06:17:04.859Z,2.57
2022-10-02T06:19:38.847Z,2.77
2022-10-02T06:22:12.326Z,2.30
2022-10-02T06:24:47.403Z,3.57
2022-10-02T06:27:26.440Z,2.77
2022-10-02T06:30:01.039Z,2.93
2022-10-02T06:32:37.839Z,3.47
2022-10-02T06:35:12.694Z,3.13
2022-10-02T06:38:01.243Z,2.70
2022-10-02T06:40:51.863Z,2.53
2022-10-02T06:43:48.799Z,1.90
2022-10-02T06:46:29.692Z,2.70
2022-10-02T06:49:05.015Z,2.03
2022-10-02T06:51:45.323Z,2.00
2022-10-02T06:54:33.139Z,1.97
2022-10-02T06:57:21.860Z,2.27
2022-10-02T07:00:08.731Z,2.33
2022-10-02T07:03:18.775Z,3.53
2022-10-02T07:06:15.304Z,2.13
2022-10-02T07:09:19.779Z,2.27
2022-10-02T07:11:56.157Z,2.03
2022-10-02T07:14:51.922Z,2.27
2022-10-02T07:17:41.022Z,4.40
2022-10-02T07:20:35.133Z,4.20
2022-10-02T07:23:27.468Z,2.67
2022-10-02T07:26:29.775Z,4.07
2022-10-02T07:29:09.326Z,2.00
2022-10-02T07:31:49.476Z,2.03
2022-10-02T07:34:34.772Z,1.40
2022-10-02T07:37:15.592Z,2.03
2022-10-02T07:39:58.419Z,1.67
2022-10-02T07:43:01.050Z,2.70
2022-10-02T07:45:35.409Z,2.00
2022-10-02T07:48:32.954Z,1.80
2022-10-02T07:51:38.902Z,1.70
2022-10-02T07:54:47.738Z,1.40
2022-10-02T07:57:30.088Z,1.40
2022-10-02T08:00:06.917Z,1.50
2022-10-02T08:02:40.834Z,1.60
2022-10-02T08:05:19.681Z,1.80
2022-10-02T08:07:54.007Z,1.30
2022-10-02T08:10:26.995Z,2.23
2022-10-02T08:13:07.871Z,2.30
2022-10-02T08:15:38.512Z,1.20
2022-10-02T08:18:33.520Z,1.53
2022-10-02T08:21:03.344Z,1.80
2022-10-02T08:23:39.625Z,1.77
2022-10-02T08:26:13.914Z,1.90
2022-10-02T08:28:50.631Z,1.60
2022-10-02T08:31:18.761Z,1.10
2022-10-02T08:33:46.835Z,1.33
2022-10-02T08:36:40.602Z,1.10
2022-10-02T08:39:33.604Z,1.50
2022-10-02T08:43:04.847Z,1.30
2022-10-02T08:46:16.615Z,1.30
2022-10-02T08:49:49.056Z,1.60
2022-10-02T08:52:45.153Z,1.40
2022-10-02T08:55:58.407Z,1.47
2022-10-02T08:59:04.064Z,1.47
2022-10-02T09:02:21.586Z,2.20
2022-10-02T09:05:52.654Z,1.20
2022-10-02T09:09:09.742Z,1.80
2022-10-02T09:12:24.001Z,1.80
2022-10-02T09:14:58.043Z,1.30
2022-10-02T09:18:04.590Z,11.30
2022-10-02T09:21:18.250Z,1.37
2022-10-02T09:24:36.811Z,1.30
2022-10-02T09:27:50.364Z,1.00
2022-10-02T09:30:54.683Z,1.20
2022-10-02T09:33:58.822Z,1.30
2022-10-02T09:37:24.829Z,1.10
2022-10-02T09:40:38.338Z,2.03
2022-10-02T09:44:03.490Z,4.17
2022-10-02T09:47:45.176Z,1.90
2022-10-02T09:51:17.318Z,2.80
2022-10-02T09:54:26.135Z,2.33
2022-10-02T09:58:05.246Z,2.13
2022-10-02T10:01:21.412Z,1.57
2022-10-02T10:04:14.354Z,1.57
2022-10-02T10:07:22.793Z,3.30
2022-10-02T10:10:25.284Z,1.20
2022-10-02T10:13:37.591Z,1.20
2022-10-02T10:17:08.953Z,1.13
2022-10-02T10:20:17.417Z,1.20
2022-10-02T10:23:09.031Z,1.20
2022-10-02T10:26:03.881Z,1.60
2022-10-02T10:29:17.365Z,1.00
2022-10-02T10:32:48.143Z,1.13
2022-10-02T10:35:34.553Z,1.40
2022-10-02T10:38:39.614Z,1.10
2022-10-02T10:41:44.705Z,1.33
2022-10-02T10:44:54.618Z,1.33
2022-10-02T10:47:52.778Z,1.63
2022-10-02T10:50:55.728Z,1.40
2022-10-02T10:54:01.633Z,3.10
2022-10-02T10:56:41.798Z,2.17
2022-10-02T11:00:14.832Z,1.40
2022-10-02T11:03:33.987Z,2.00
2022-10-02T11:06:56.530Z,2.00
2022-10-02T11:10:08.729Z,1.30
2022-10-02T11:13:06.204Z,2.27
2022-10-02T11:16:07.554Z,1.20
2022-10-02T11:18:51.922Z,1.30
2022-10-02T11:22:07.108Z,1.20
2022-10-02T11:25:12.952Z,1.77
2022-10-02T11:28:13.878Z,1.30
2022-10-02T11:31:00.732Z,1.50
2022-10-02T11:34:13.127Z,2.20
2022-10-02T11:37:09.568Z,1.60
2022-10-02T11:40:04.171Z,1.20
2022-10-02T11:42:51.438Z,1.27
2022-10-02T11:46:11.969Z,1.30
2022-10-02T11:49:02.290Z,1.50
2022-10-02T11:51:59.292Z,0.90
2022-10-02T11:54:49.306Z,1.20
2022-10-02T11:57:30.169Z,0.97
2022-10-02T12:00:29.917Z,1.00
2022-10-02T12:03:04.172Z,1.00
2022-10-02T12:05:55.221Z,1.00
2022-10-02T12:08:36.912Z,1.03
2022-10-02T12:11:15.627Z,1.10
2022-10-02T12:14:24.069Z,1.00
2022-10-02T12:17:14.720Z,1.10
2022-10-02T12:20:20.198Z,1.70
2022-10-02T12:23:17.924Z,2.20
2022-10-02T12:26:12.246Z,1.90
2022-10-02T12:28:56.024Z,1.63
2022-10-02T12:31:33.506Z,2.20
2022-10-02T12:34:16.991Z,1.93
2022-10-02T12:36:58.194Z,0.90
2022-10-02T12:39:42.606Z,1.43
2022-10-02T12:42:50.041Z,0.90
2022-10-02T12:45:44.245Z,1.20
2022-10-02T12:48:30.947Z,1.67
2022-10-02T12:51:30.131Z,1.00
2022-10-02T12:55:02.703Z,1.20
2022-10-02T12:58:01.014Z,2.33
2022-10-02T13:00:49.875Z,1.33
2022-10-02T13:03:49.558Z,1.80
2022-10-02T13:06:58.193Z,1.93
2022-10-02T13:09:46.210Z,1.50
2022-10-02T13:12:38.419Z,1.20
2022-10-02T13:15:27.796Z,1.07
2022-10-02T13:18:06.539Z,1.47
2022-10-02T13:20:40.235Z,1.70
2022-10-02T13:23:31.947Z,2.43
2022-10-02T13:26:11.949Z,1.90
2022-10-02T13:28:55.473Z,1.37
2022-10-02T13:31:40.131Z,0.80
2022-10-02T13:34:27.464Z,2.43
2022-10-02T13:37:19.934Z,0.70
2022-10-02T13:40:13.868Z,0.97
2022-10-02T13:43:01.532Z,0.70
2022-10-02T13:45:37.958Z,4.23
2022-10-02T13:48:16.594Z,0.90
2022-10-02T13:50:53.616Z,1.20
2022-10-02T13:53:42.717Z,0.87
2022-10-02T13:56:26.592Z,1.37
2022-10-02T13:59:33.395Z,1.50
2022-10-02T14:02:22.028Z,0.80
2022-10-02T14:05:00.496Z,1.00
2022-10-02T14:07:46.598Z,1.17
2022-10-02T14:10:31.660Z,0.90
2022-10-02T14:13:16.071Z,1.40
2022-10-02T14:16:07.302Z,1.13
2022-10-02T14:19:05.066Z,1.53
2022-10-02T14:21:38.584Z,1.20
2022-10-02T14:25:04.078Z,3.73
2022-10-02T14:28:25.636Z,3.93
2022-10-02T14:31:28.121Z,1.67
2022-10-02T14:34:32.894Z,2.20
2022-10-02T14:37:45.187Z,2.30
2022-10-02T14:40:16.924Z,4.40
2022-10-02T14:43:20.371Z,1.30
2022-10-02T14:46:11.574Z,1.33
2022-10-02T14:49:06.957Z,1.37
2022-10-02T14:52:08.511Z,1.30
2022-10-02T14:54:57.042Z,1.27
2022-10-02T14:57:45.606Z,1.20
2022-10-02T15:00:19.568Z,1.37
2022-10-02T15:03:20.683Z,1.47
2022-10-02T15:06:28.582Z,1.27
2022-10-02T15:09:02.054Z,0.90
2022-10-02T15:11:54.949Z,1.10
2022-10-02T15:14:29.117Z,0.90
2022-10-02T15:17:19.729Z,1.33
2022-10-02T15:19:52.427Z,1.00
2022-10-02T15:22:25.973Z,0.80
2022-10-02T15:25:01.984Z,0.87
2022-10-02T15:27:43.750Z,1.07
2022-10-02T15:30:22.228Z,1.10
2022-10-02T15:33:14.476Z,1.00
2022-10-02T15:36:16.931Z,1.33
2022-10-02T15:39:17.463Z,1.10
2022-10-02T15:41:55.969Z,1.00
2022-10-02T15:44:51.949Z,1.10
2022-10-02T15:47:40.761Z,0.90
2022-10-02T15:50:26.939Z,1.00
2022-10-02T15:53:19.044Z,1.20
2022-10-02T15:55:53.120Z,1.00
2022-10-02T15:58:45.696Z,1.30
2022-10-02T16:01:30.968Z,1.30
2022-10-02T16:04:08.611Z,1.50
2022-10-02T16:07:08.865Z,1.30
2022-10-02T16:09:51.194Z,1.47
2022-10-02T16:12:43.723Z,1.20
2022-10-02T16:15:25.106Z,1.50
2022-10-02T16:18:14.020Z,1.17
2022-10-02T16:21:02.875Z,1.07
2022-10-02T16:24:13.990Z,1.20
2022-10-02T16:27:32.815Z,1.53
2022-10-02T16:30:13.614Z,1.40
2022-10-02T16:33:08.101Z,1.83
2022-10-02T16:36:30.811Z,1.40
2022-10-02T16:39:34.036Z,1.50
2022-10-02T16:42:11.580Z,1.60
2022-10-02T16:45:00.464Z,1.50
2022-10-02T16:47:34.041Z,1.50
2022-10-02T16:50:20.056Z,2.00
2022-10-02T16:52:57.232Z,2.33
2022-10-02T16:55:33.971Z,2.00
2022-10-02T16:58:18.532Z,2.17
2022-10-02T17:00:57.537Z,2.80
2022-10-02T17:03:35.624Z,2.20
2022-10-02T17:06:19.701Z,1.70
2022-10-02T17:08:54.764Z,1.60
2022-10-02T17:11:29.692Z,3.20
2022-10-02T17:14:14.867Z,2.53
2022-10-02T17:16:58.406Z,2.33
2022-10-02T17:19:32.082Z,2.33
2022-10-02T17:22:07.387Z,3.10
2022-10-02T17:24:43.837Z,2.10
2022-10-02T17:27:20.796Z,2.00
2022-10-02T17:29:57.526Z,1.30
2022-10-02T17:32:51.778Z,2.23
2022-10-02T17:35:38.032Z,2.67
2022-10-02T17:38:50.298Z,1.70
2022-10-02T17:41:43.145Z,2.80
2022-10-02T17:44:26.230Z,1.30
2022-10-02T17:47:39.627Z,1.77
2022-10-02T17:50:55.488Z,1.93
2022-10-02T17:53:58.684Z,2.13
2022-10-02T17:57:06.323Z,2.20
2022-10-02T18:00:22.159Z,1.93
2022-10-02T18:03:27.325Z,1.70
2022-10-02T18:06:10.587Z,1.70
2022-10-02T18:09:04.217Z,1.80
2022-10-02T18:11:58.450Z,1.80
2022-10-02T18:15:28.195Z,3.73
2022-10-02T18:18:19.891Z,1.47
2022-10-02T18:21:03.618Z,2.13
2022-10-02T18:24:06.574Z,1.90
2022-10-02T18:27:04.058Z,3.03
2022-10-02T18:29:54.323Z,1.80
2022-10-02T18:33:25.107Z,1.90
2022-10-02T18:36:21.125Z,2.07
2022-10-02T18:39:00.948Z,2.20
2022-10-02T18:41:50.721Z,1.90
2022-10-02T18:44:53.183Z,2.80
2022-10-02T18:47:39.275Z,3.27
2022-10-02T18:50:40.132Z,1.37
2022-10-02T18:53:28.714Z,1.47
2022-10-02T18:56:08.453Z,2.23
2022-10-02T18:58:54.429Z,1.80
2022-10-02T19:01:48.906Z,1.80
2022-10-02T19:04:40.304Z,2.20
2022-10-02T19:07:18.479Z,1.70
2022-10-02T19:09:47.989Z,2.10
2022-10-02T19:12:18.662Z,1.90
2022-10-02T19:14:47.977Z,2.40
2022-10-02T19:17:18.426Z,2.30
2022-10-02T19:19:46.456Z,2.03
2022-10-02T19:22:25.316Z,1.90
2022-10-02T19:24:59.171Z,2.27
2022-10-02T19:27:31.016Z,2.17
2022-10-02T19:30:02.521Z,2.07
2022-10-02T19:32:35.273Z,2.70
2022-10-02T19:35:16.990Z,2.63
2022-10-02T19:37:49.102Z,2.47
2022-10-02T19:40:23.695Z,2.80
2022-10-02T19:42:57.445Z,2.90
2022-10-02T19:45:30.447Z,2.73
2022-10-02T19:48:02.630Z,2.60
2022-10-02T19:50:41.300Z,2.90
2022-10-02T19:53:23.366Z,4.10
2022-10-02T19:55:57.410Z,2.77
2022-10-02T19:58:34.503Z,2.73
2022-10-02T20:01:08.609Z,2.73
2022-10-02T20:03:38.068Z,2.37
2022-10-02T20:06:25.180Z,2.47
2022-10-02T20:09:02.364Z,2.07
2022-10-02T20:11:39.909Z,3.00
2022-10-02T20:14:17.898Z,3.37
2022-10-02T20:17:05.062Z,2.93
2022-10-02T20:19:39.153Z,3.20
2022-10-02T20:22:17.446Z,3.63
2022-10-02T20:24:52.389Z,3.70
2022-10-02T20:27:27.338Z,3.10
2022-10-02T20:30:00.909Z,3.63
2022-10-02T20:32:36.220Z,3.33
2022-10-02T20:35:13.578Z,2.63
2022-10-02T20:37:43.733Z,3.10
2022-10-02T20:40:18.394Z,3.43
2022-10-02T20:42:55.379Z,3.20
2022-10-02T20:45:31.176Z,3.33
2022-10-02T20:49:07.070Z,3.00
2022-10-02T20:52:01.757Z,3.47
2022-10-02T20:54:54.099Z,2.80
2022-10-02T20:58:18.292Z,3.70
2022-10-02T21:01:14.167Z,2.77
2022-10-02T21:05:01.141Z,3.57
2022-10-02T21:08:08.494Z,2.43
2022-10-02T21:11:20.252Z,3.80
2022-10-02T21:14:30.786Z,3.23
2022-10-02T21:17:57.553Z,3.30
2022-10-02T21:21:07.123Z,3.40
2022-10-02T21:24:07.871Z,2.73
2022-10-02T21:27:18.377Z,2.67
2022-10-02T21:30:13.012Z,3.80
2022-10-02T21:33:16.066Z,3.47
2022-10-02T21:35:54.782Z,2.80
2022-10-02T21:39:10.323Z,3.03
2022-10-02T21:42:22.823Z,4.13
2022-10-02T21:45:34.160Z,3.23
2022-10-02T21:48:37.278Z,3.63
2022-10-02T21:51:53.415Z,3.80
2022-10-02T21:55:07.417Z,4.83
2022-10-02T21:58:34.236Z,4.90
2022-10-02T22:02:04.285Z,3.80
2022-10-02T22:05:33.098Z,4.80
2022-10-02T22:08:13.678Z,4.27
2022-10-02T22:10:55.524Z,4.83
2022-10-02T22:13:33.117Z,4.00
2022-10-02T22:16:18.601Z,5.27
2022-10-02T22:18:53.417Z,4.67
2022-10-02T22:21:57.590Z,3.63
2022-10-02T22:24:48.524Z,4.13
2022-10-02T22:27:47.184Z,4.93
2022-10-02T22:30:26.897Z,7.80
2022-10-02T22:33:22.600Z,10.20
2022-10-02T22:36:51.100Z,9.73
2022-10-02T22:39:28.738Z,7.17
2022-10-02T22:42:03.632Z,6.20
2022-10-02T22:44:42.916Z,8.83
2022-10-02T22:47:24.509Z,7.77
2022-10-02T22:49:59.798Z,8.33
2022-10-02T22:52:33.299Z,8.47
2022-10-02T22:55:10.093Z,6.40
2022-10-02T22:57:45.968Z,8.80
2022-10-02T23:00:20.439Z,6.37
2022-10-02T23:02:54.665Z,7.20
2022-10-02T23:05:29.309Z,7.63
2022-10-02T23:08:04.074Z,6.10
2022-10-02T23:10:42.924Z,6.73
2022-10-02T23:13:21.569Z,6.67
2022-10-02T23:15:59.027Z,7.93
2022-10-02T23:18:38.248Z,6.53
2022-10-02T23:21:22.294Z,6.20
2022-10-02T23:23:58.624Z,5.53
2022-10-02T23:26:34.312Z,5.90
2022-10-02T23:29:19.682Z,5.53
2022-10-02T23:31:58.067Z,5.73
2022-10-02T23:34:36.894Z,4.90
2022-10-02T23:37:17.460Z,5.70
2022-10-02T23:39:55.278Z,7.50
2022-10-02T23:42:33.290Z,6.43
2022-10-02T23:45:10.112Z,5.80
2022-10-02T23:47:55.759Z,6.10
2022-10-02T23:50:29.399Z,5.83
2022-10-02T23:53:32.398Z,5.80
2022-10-02T23:56:22.235Z,5.30
2022-10-02T23:59:18.123Z,5.30
